Deer Harbor, WA (98243)

5:38 AM PDT on August 31, 2015 (GMT -0700)
APRSWXNET | | Change Station
CLOSE
Current Station
Personal Weather Station
Location: Deer Harbor, WA
Elevation: 219 ft
Nearby Weather Stations

Elev 219 ft 48.63 °N, 123.02 °W | Updated 26 minutes ago

Mostly Cloudy
Mostly Cloudy
57 °F
Feels Like 57 °F
N
1
Wind Variable Wind from South
Gusts 6.0 mph

Today
High -- | Low -- °F
--% Chance of Precip.
Yesterday
High -- | Low -- °F
Precip. -- in
6:27 AM 7:56 PM
Waning Gibbous, 95% visible
Pressure 29.88 in
Visibility 10.0 miles
Clouds Overcast 5000 ft
Dew Point 55 °F
Humidity 92%
Rainfall in
Snow Depth Not available.
UV 0 out of 12
Pollen .50 out of 12
Air Quality Not available.
Flu Activity Not available.
METAR KFHR 311153Z AUTO 14007KT 10SM -RA OVC050 13/12 A2988 RMK AO2 SLP118 P0000 60000 T01330117 10150 20133 50001
Pressure 29.88 in
Visibility 10.0 miles
Clouds Overcast 5000 ft
Dew Point 55 °F
Humidity 92%
Rainfall in
Snow Depth Not available.
UV 0 out of 12
Pollen .50 out of 12
Air Quality Not available.
Flu Activity Not available.
METAR KFHR 311153Z AUTO 14007KT 10SM -RA OVC050 13/12 A2988 RMK AO2 SLP118 P0000 60000 T01330117 10150 20133 50001

10-Day Weather Forecast

×

Almanac

Astronomy

Aug. 31, 2015 Rise Set
Actual Time
Civil Twilight
Nautical Twilight
Astronomical Twilight
Moon
Length of Visible Light
Length of Day
Tomorrow will be .
, % of the Moon is Illuminated

Today's Extremes

State Highs State Lows

Community

WunderPhotos

Upload Photos

1,851,222 photos uploaded!

WunderBlogs® & News

Nearby

Air Quality

  Air Quality AQ Index Pollutant
Not available.

Snow Depth

Station Depth Elevation

Earthquake Activity

City Distance Mag. Time & Date
Minimum magnitude displayed is 2.5.

Coastal Water Temperatures

Place Temperature

Stations

Nearby Weather Stations

Station Location Temp. Windchill Dew Point Humidity Wind Precip. Elev Updated Type